sensor_id;sensor_type;location;lat;lon;timestamp;pressure;altitude;pressure_sealevel;temperature;humidity
71915;BME280;60387;49.994;14.660;2023-02-20T00:00:36;98464.09;;;5.98;59.09
71915;BME280;60387;49.994;14.660;2023-02-20T00:03:14;98433.28;;;5.84;59.00
71915;BME280;60387;49.994;14.660;2023-02-20T00:05:47;98454.72;;;6.00;59.03
71915;BME280;60387;49.994;14.660;2023-02-20T00:08:20;98452.34;;;6.04;59.01
71915;BME280;60387;49.994;14.660;2023-02-20T00:10:54;98453.19;;;6.09;59.16
71915;BME280;60387;49.994;14.660;2023-02-20T00:13:27;98445.69;;;6.11;58.91
71915;BME280;60387;49.994;14.660;2023-02-20T00:16:00;98443.53;;;6.13;58.90
71915;BME280;60387;49.994;14.660;2023-02-20T00:18:33;98440.59;;;6.15;59.01
71915;BME280;60387;49.994;14.660;2023-02-20T00:21:09;98434.66;;;6.13;59.02
71915;BME280;60387;49.994;14.660;2023-02-20T00:23:42;98443.34;;;6.20;58.97
71915;BME280;60387;49.994;14.660;2023-02-20T00:26:16;98435.78;;;6.17;59.17
71915;BME280;60387;49.994;14.660;2023-02-20T00:28:49;98426.13;;;6.21;58.93
71915;BME280;60387;49.994;14.660;2023-02-20T00:31:22;98425.63;;;6.23;59.09
71915;BME280;60387;49.994;14.660;2023-02-20T00:33:56;98428.59;;;6.27;58.77
71915;BME280;60387;49.994;14.660;2023-02-20T00:36:29;98408.97;;;6.27;59.12
71915;BME280;60387;49.994;14.660;2023-02-20T00:39:02;98418.16;;;6.30;58.94
71915;BME280;60387;49.994;14.660;2023-02-20T00:41:35;98413.31;;;6.32;58.88
71915;BME280;60387;49.994;14.660;2023-02-20T00:44:09;98408.47;;;6.34;58.94
71915;BME280;60387;49.994;14.660;2023-02-20T00:46:42;98408.78;;;6.38;58.58
71915;BME280;60387;49.994;14.660;2023-02-20T00:49:16;98402.91;;;6.41;58.63
71915;BME280;60387;49.994;14.660;2023-02-20T00:51:49;98392.69;;;6.43;58.84
71915;BME280;60387;49.994;14.660;2023-02-20T00:54:22;98397.03;;;6.49;58.80
71915;BME280;60387;49.994;14.660;2023-02-20T00:56:56;98403.53;;;6.53;58.57
71915;BME280;60387;49.994;14.660;2023-02-20T00:59:29;98391.97;;;6.52;58.53
71915;BME280;60387;49.994;14.660;2023-02-20T01:02:02;98393.59;;;6.58;58.37
71915;BME280;60387;49.994;14.660;2023-02-20T01:04:36;98402.25;;;6.60;58.49
71915;BME280;60387;49.994;14.660;2023-02-20T01:07:09;98394.66;;;6.57;58.60
71915;BME280;60387;49.994;14.660;2023-02-20T01:09:43;98402.25;;;6.65;58.32
71915;BME280;60387;49.994;14.660;2023-02-20T01:12:16;98401.19;;;6.66;58.54
71915;BME280;60387;49.994;14.660;2023-02-20T01:14:49;98389.34;;;6.67;58.55
71915;BME280;60387;49.994;14.660;2023-02-20T01:17:23;98375.88;;;6.67;58.32
71915;BME280;60387;49.994;14.660;2023-02-20T01:19:56;98385.31;;;6.70;58.37
71915;BME280;60387;49.994;14.660;2023-02-20T01:22:29;98379.69;;;6.71;58.44
71915;BME280;60387;49.994;14.660;2023-02-20T01:25:03;98382.38;;;6.71;58.50
71915;BME280;60387;49.994;14.660;2023-02-20T01:27:36;98388.84;;;6.75;58.40
71915;BME280;60387;49.994;14.660;2023-02-20T01:30:10;98387.78;;;6.76;58.41
71915;BME280;60387;49.994;14.660;2023-02-20T01:32:43;98397.50;;;6.77;58.64
71915;BME280;60387;49.994;14.660;2023-02-20T01:35:17;98396.44;;;6.78;58.63
71915;BME280;60387;49.994;14.660;2023-02-20T01:37:50;98388.91;;;6.80;58.73
71915;BME280;60387;49.994;14.660;2023-02-20T01:40:25;98384.06;;;6.82;58.43
71915;BME280;60387;49.994;14.660;2023-02-20T01:42:59;98375.44;;;6.80;58.78
71915;BME280;60387;49.994;14.660;2023-02-20T01:45:35;98369.53;;;6.83;58.87
71915;BME280;60387;49.994;14.660;2023-02-20T01:48:21;98359.28;;;6.85;58.61
71915;BME280;60387;49.994;14.660;2023-02-20T01:50:57;98349.34;;;6.86;58.79
71915;BME280;60387;49.994;14.660;2023-02-20T01:53:32;98330.50;;;6.86;58.50
71915;BME280;60387;49.994;14.660;2023-02-20T01:56:07;98337.50;;;6.87;58.78
71915;BME280;60387;49.994;14.660;2023-02-20T01:58:45;98328.34;;;6.88;58.94
71915;BME280;60387;49.994;14.660;2023-02-20T02:01:21;98313.25;;;6.87;58.82
71915;BME280;60387;49.994;14.660;2023-02-20T02:03:56;98317.84;;;6.91;59.56
71915;BME280;60387;49.994;14.660;2023-02-20T02:06:33;98314.09;;;6.92;59.53
71915;BME280;60387;49.994;14.660;2023-02-20T02:09:14;98318.16;;;6.95;59.22
71915;BME280;60387;49.994;14.660;2023-02-20T02:11:50;98309.81;;;6.96;59.60
71915;BME280;60387;49.994;14.660;2023-02-20T02:14:24;98317.09;;;7.01;59.00
71915;BME280;60387;49.994;14.660;2023-02-20T02:38:03;98288.38;;;7.31;59.15
71915;BME280;60387;49.994;14.660;2023-02-20T02:40:47;98286.75;;;7.35;59.25
71915;BME280;60387;49.994;14.660;2023-02-20T02:43:37;98283.25;;;7.40;59.23
71915;BME280;60387;49.994;14.660;2023-02-20T02:49:19;98264.69;;;7.48;59.49
71915;BME280;60387;49.994;14.660;2023-02-20T02:51:58;98261.44;;;7.51;60.00
71915;BME280;60387;49.994;14.660;2023-02-20T02:54:33;98256.34;;;7.50;59.94
71915;BME280;60387;49.994;14.660;2023-02-20T02:57:19;98261.44;;;7.56;59.78
71915;BME280;60387;49.994;14.660;2023-02-20T03:02:59;98256.06;;;7.56;59.85
71915;BME280;60387;49.994;14.660;2023-02-20T03:05:39;98264.44;;;7.60;60.07
71915;BME280;60387;49.994;14.660;2023-02-20T03:08:28;98260.66;;;7.61;60.10
71915;BME280;60387;49.994;14.660;2023-02-20T03:11:13;98274.41;;;7.64;60.01
71915;BME280;60387;49.994;14.660;2023-02-20T03:14:04;98270.63;;;7.65;60.60
71915;BME280;60387;49.994;14.660;2023-02-20T03:16:46;98286.25;;;7.68;60.12
71915;BME280;60387;49.994;14.660;2023-02-20T03:19:37;98277.66;;;7.71;59.87
71915;BME280;60387;49.994;14.660;2023-02-20T03:24:56;98256.06;;;7.76;59.92
71915;BME280;60387;49.994;14.660;2023-02-20T03:30:29;98251.19;;;7.83;61.00
71915;BME280;60387;49.994;14.660;2023-02-20T03:33:18;98252.81;;;7.84;60.69
71915;BME280;60387;49.994;14.660;2023-02-20T03:35:53;98243.66;;;7.85;60.02
71915;BME280;60387;49.994;14.660;2023-02-20T03:38:28;98238.53;;;7.89;59.96
71915;BME280;60387;49.994;14.660;2023-02-20T03:41:04;98239.34;;;7.89;60.10
71915;BME280;60387;49.994;14.660;2023-02-20T03:43:39;98235.28;;;7.92;60.81
71915;BME280;60387;49.994;14.660;2023-02-20T03:46:19;98238.81;;;7.97;60.45
71915;BME280;60387;49.994;14.660;2023-02-20T03:49:01;98239.03;;;8.01;60.27
71915;BME280;60387;49.994;14.660;2023-02-20T03:51:35;98239.88;;;8.06;60.27
71915;BME280;60387;49.994;14.660;2023-02-20T03:54:09;98236.34;;;8.11;60.06
71915;BME280;60387;49.994;14.660;2023-02-20T03:56:45;98236.63;;;8.14;59.77
71915;BME280;60387;49.994;14.660;2023-02-20T03:59:24;98240.13;;;8.20;60.20
71915;BME280;60387;49.994;14.660;2023-02-20T04:02:05;98247.94;;;8.26;60.17
71915;BME280;60387;49.994;14.660;2023-02-20T04:04:46;98246.28;;;8.30;60.32
71915;BME280;60387;49.994;14.660;2023-02-20T04:07:27;98261.66;;;8.35;59.99
71915;BME280;60387;49.994;14.660;2023-02-20T04:10:05;98243.03;;;8.38;60.67
71915;BME280;60387;49.994;14.660;2023-02-20T04:12:42;98237.91;;;8.42;60.95
71915;BME280;60387;49.994;14.660;2023-02-20T04:15:18;98239.00;;;8.46;61.30
71915;BME280;60387;49.994;14.660;2023-02-20T04:17:58;98236.50;;;8.54;61.81
71915;BME280;60387;49.994;14.660;2023-02-20T04:20:33;98243.78;;;8.59;62.53
71915;BME280;60387;49.994;14.660;2023-02-20T04:23:12;98232.72;;;8.65;61.89
71915;BME280;60387;49.994;14.660;2023-02-20T04:26:00;98236.47;;;8.74;61.73
71915;BME280;60387;49.994;14.660;2023-02-20T04:28:34;98226.97;;;8.82;63.13
71915;BME280;60387;49.994;14.660;2023-02-20T04:31:10;98230.16;;;8.89;62.15
71915;BME280;60387;49.994;14.660;2023-02-20T04:33:45;98232.03;;;8.93;61.56
71915;BME280;60387;49.994;14.660;2023-02-20T04:36:19;98236.34;;;8.99;61.37
71915;BME280;60387;49.994;14.660;2023-02-20T04:38:52;98240.91;;;9.04;61.32
71915;BME280;60387;49.994;14.660;2023-02-20T04:41:26;98231.97;;;9.08;61.70
71915;BME280;60387;49.994;14.660;2023-02-20T04:43:59;98233.00;;;9.12;62.20
71915;BME280;60387;49.994;14.660;2023-02-20T04:46:32;98238.41;;;9.17;61.44
71915;BME280;60387;49.994;14.660;2023-02-20T04:49:05;98239.16;;;9.23;61.45
71915;BME280;60387;49.994;14.660;2023-02-20T04:51:39;98244.81;;;9.26;61.54
71915;BME280;60387;49.994;14.660;2023-02-20T04:54:12;98229.38;;;9.32;61.36
71915;BME280;60387;49.994;14.660;2023-02-20T04:56:45;98213.69;;;9.34;62.09
71915;BME280;60387;49.994;14.660;2023-02-20T04:59:19;98219.59;;;9.36;62.07
71915;BME280;60387;49.994;14.660;2023-02-20T05:01:52;98217.72;;;9.36;62.12
71915;BME280;60387;49.994;14.660;2023-02-20T05:04:27;98225.00;;;9.41;62.45
71915;BME280;60387;49.994;14.660;2023-02-20T05:07:00;98213.09;;;9.37;62.04
71915;BME280;60387;49.994;14.660;2023-02-20T05:09:34;98220.38;;;9.41;61.92
71915;BME280;60387;49.994;14.660;2023-02-20T05:12:07;98227.41;;;9.42;61.87
71915;BME280;60387;49.994;14.660;2023-02-20T05:14:40;98231.44;;;9.44;61.87
71915;BME280;60387;49.994;14.660;2023-02-20T05:17:14;98229.56;;;9.45;62.73
71915;BME280;60387;49.994;14.660;2023-02-20T05:19:47;98241.97;;;9.46;61.94
71915;BME280;60387;49.994;14.660;2023-02-20T05:22:20;98251.75;;;9.42;61.90
71915;BME280;60387;49.994;14.660;2023-02-20T05:24:54;98251.97;;;9.45;62.11
71915;BME280;60387;49.994;14.660;2023-02-20T05:27:27;98254.97;;;9.44;61.52
71915;BME280;60387;49.994;14.660;2023-02-20T05:30:01;98264.94;;;9.48;62.08
71915;BME280;60387;49.994;14.660;2023-02-20T05:32:35;98265.50;;;9.45;61.84
71915;BME280;60387;49.994;14.660;2023-02-20T05:35:09;98263.09;;;9.44;62.06
71915;BME280;60387;49.994;14.660;2023-02-20T05:37:42;98269.28;;;9.44;61.61
71915;BME280;60387;49.994;14.660;2023-02-20T05:40:16;98270.09;;;9.45;61.41
71915;BME280;60387;49.994;14.660;2023-02-20T05:42:49;98284.72;;;9.44;61.60
71915;BME280;60387;49.994;14.660;2023-02-20T05:45:22;98268.50;;;9.39;61.80
71915;BME280;60387;49.994;14.660;2023-02-20T05:47:56;98273.91;;;9.39;62.12
71915;BME280;60387;49.994;14.660;2023-02-20T05:50:29;98271.75;;;9.41;62.30
71915;BME280;60387;49.994;14.660;2023-02-20T05:53:03;98267.44;;;9.40;62.02
71915;BME280;60387;49.994;14.660;2023-02-20T05:55:36;98258.53;;;9.40;61.74
71915;BME280;60387;49.994;14.660;2023-02-20T05:58:09;98273.38;;;9.42;62.26
71915;BME280;60387;49.994;14.660;2023-02-20T06:00:43;98266.59;;;9.44;61.81
71915;BME280;60387;49.994;14.660;2023-02-20T06:03:16;98266.88;;;9.43;62.13
71915;BME280;60387;49.994;14.660;2023-02-20T06:05:50;98268.19;;;9.45;62.07
71915;BME280;60387;49.994;14.660;2023-02-20T06:08:23;98269.00;;;9.51;61.61
71915;BME280;60387;49.994;14.660;2023-02-20T06:10:56;98269.25;;;9.49;62.26
71915;BME280;60387;49.994;14.660;2023-02-20T06:13:30;98255.47;;;9.51;61.58
71915;BME280;60387;49.994;14.660;2023-02-20T06:16:03;98264.09;;;9.53;61.67
71915;BME280;60387;49.994;14.660;2023-02-20T06:18:38;98263.84;;;9.54;61.42
71915;BME280;60387;49.994;14.660;2023-02-20T06:21:11;98260.03;;;9.55;61.33
71915;BME280;60387;49.994;14.660;2023-02-20T06:23:45;98270.53;;;9.62;61.51
71915;BME280;60387;49.994;14.660;2023-02-20T06:26:19;98272.16;;;9.63;61.67
71915;BME280;60387;49.994;14.660;2023-02-20T06:28:53;98280.78;;;9.65;61.94
71915;BME280;60387;49.994;14.660;2023-02-20T06:31:27;98268.88;;;9.66;61.35
71915;BME280;60387;49.994;14.660;2023-02-20T06:34:00;98268.03;;;9.70;61.34
71915;BME280;60387;49.994;14.660;2023-02-20T06:36:35;98253.19;;;9.68;61.29
71915;BME280;60387;49.994;14.660;2023-02-20T06:39:11;98267.72;;;9.77;61.27
71915;BME280;60387;49.994;14.660;2023-02-20T06:41:45;98276.34;;;9.79;61.40
71915;BME280;60387;49.994;14.660;2023-02-20T06:44:18;98267.66;;;9.82;61.54
71915;BME280;60387;49.994;14.660;2023-02-20T06:46:51;98259.56;;;9.82;61.19
71915;BME280;60387;49.994;14.660;2023-02-20T06:49:25;98270.63;;;9.85;61.38
71915;BME280;60387;49.994;14.660;2023-02-20T06:51:58;98256.81;;;9.87;60.91
71915;BME280;60387;49.994;14.660;2023-02-20T06:54:31;98271.09;;;9.92;61.49
71915;BME280;60387;49.994;14.660;2023-02-20T06:57:05;98267.31;;;9.93;60.53
71915;BME280;60387;49.994;14.660;2023-02-20T06:59:38;98267.28;;;9.98;60.94
71915;BME280;60387;49.994;14.660;2023-02-20T07:02:13;98266.69;;;10.01;60.79
71915;BME280;60387;49.994;14.660;2023-02-20T07:04:49;98249.91;;;10.04;60.77
71915;BME280;60387;49.994;14.660;2023-02-20T07:07:22;98237.75;;;10.02;60.70
71915;BME280;60387;49.994;14.660;2023-02-20T07:09:55;98247.19;;;10.04;60.77
71915;BME280;60387;49.994;14.660;2023-02-20T07:12:29;98235.53;;;10.09;60.48
71915;BME280;60387;49.994;14.660;2023-02-20T07:15:05;98249.53;;;10.16;60.23
71915;BME280;60387;49.994;14.660;2023-02-20T07:17:39;98248.97;;;10.19;60.50
71915;BME280;60387;49.994;14.660;2023-02-20T07:20:13;98241.38;;;10.21;60.34
71915;BME280;60387;49.994;14.660;2023-02-20T07:22:51;98249.13;;;10.32;60.21
71915;BME280;60387;49.994;14.660;2023-02-20T07:25:24;98251.47;;;10.39;59.83
71915;BME280;60387;49.994;14.660;2023-02-20T07:27:58;98248.19;;;10.42;60.02
71915;BME280;60387;49.994;14.660;2023-02-20T07:30:31;98247.56;;;10.50;59.73
71915;BME280;60387;49.994;14.660;2023-02-20T07:33:04;98238.28;;;10.56;58.80
71915;BME280;60387;49.994;14.660;2023-02-20T07:35:37;98236.03;;;10.63;58.91
71915;BME280;60387;49.994;14.660;2023-02-20T07:38:11;98234.88;;;10.69;59.02
71915;BME280;60387;49.994;14.660;2023-02-20T07:40:45;98225.09;;;10.73;58.74
71915;BME280;60387;49.994;14.660;2023-02-20T07:43:18;98232.09;;;10.74;58.75
71915;BME280;60387;49.994;14.660;2023-02-20T07:45:51;98230.97;;;10.80;58.21
71915;BME280;60387;49.994;14.660;2023-02-20T07:48:24;98230.38;;;10.83;58.59
71915;BME280;60387;49.994;14.660;2023-02-20T07:50:58;98216.53;;;10.84;58.06
71915;BME280;60387;49.994;14.660;2023-02-20T07:53:31;98221.66;;;10.86;58.14
71915;BME280;60387;49.994;14.660;2023-02-20T07:56:05;98229.72;;;10.91;57.93
71915;BME280;60387;49.994;14.660;2023-02-20T07:58:38;98232.38;;;10.96;58.04
71915;BME280;60387;49.994;14.660;2023-02-20T08:01:11;98249.44;;;10.96;57.81
71915;BME280;60387;49.994;14.660;2023-02-20T08:03:45;98262.34;;;11.04;57.37
71915;BME280;60387;49.994;14.660;2023-02-20T08:06:19;98249.31;;;11.06;57.98
71915;BME280;60387;49.994;14.660;2023-02-20T08:08:52;98235.97;;;11.10;57.79
71915;BME280;60387;49.994;14.660;2023-02-20T08:11:25;98222.41;;;11.10;57.77
71915;BME280;60387;49.994;14.660;2023-02-20T08:13:59;98228.00;;;11.18;57.43
71915;BME280;60387;49.994;14.660;2023-02-20T08:16:32;98228.75;;;11.24;57.03
71915;BME280;60387;49.994;14.660;2023-02-20T08:19:06;98219.78;;;11.23;56.27
71915;BME280;60387;49.994;14.660;2023-02-20T08:21:39;98202.63;;;11.28;56.73
71915;BME280;60387;49.994;14.660;2023-02-20T08:24:12;98206.28;;;11.37;56.17
71915;BME280;60387;49.994;14.660;2023-02-20T08:26:46;98207.78;;;11.48;56.50
71915;BME280;60387;49.994;14.660;2023-02-20T08:29:20;98194.66;;;11.55;56.15
71915;BME280;60387;49.994;14.660;2023-02-20T08:31:54;98195.00;;;11.67;56.54
71915;BME280;60387;49.994;14.660;2023-02-20T08:34:27;98196.44;;;11.78;56.05
71915;BME280;60387;49.994;14.660;2023-02-20T08:37:00;98183.22;;;11.90;56.15
71915;BME280;60387;49.994;14.660;2023-02-20T08:39:34;98185.66;;;12.05;56.01
71915;BME280;60387;49.994;14.660;2023-02-20T08:42:08;98181.34;;;12.17;55.49
71915;BME280;60387;49.994;14.660;2023-02-20T08:44:41;98173.19;;;12.31;54.66
71915;BME280;60387;49.994;14.660;2023-02-20T08:47:18;98169.00;;;12.38;54.37
71915;BME280;60387;49.994;14.660;2023-02-20T08:49:51;98166.50;;;12.42;54.95
71915;BME280;60387;49.994;14.660;2023-02-20T08:52:25;98160.94;;;12.47;54.13
71915;BME280;60387;49.994;14.660;2023-02-20T08:54:58;98172.81;;;12.51;54.55
71915;BME280;60387;49.994;14.660;2023-02-20T08:57:31;98158.22;;;12.47;53.01
71915;BME280;60387;49.994;14.660;2023-02-20T09:00:05;98163.84;;;12.50;53.86
71915;BME280;60387;49.994;14.660;2023-02-20T09:02:39;98157.50;;;12.55;54.23
71915;BME280;60387;49.994;14.660;2023-02-20T09:05:13;98163.34;;;12.62;54.41
71915;BME280;60387;49.994;14.660;2023-02-20T09:07:46;98153.88;;;12.59;53.20
71915;BME280;60387;49.994;14.660;2023-02-20T09:10:20;98143.22;;;12.63;53.55
71915;BME280;60387;49.994;14.660;2023-02-20T09:12:53;98148.84;;;12.66;52.49
71915;BME280;60387;49.994;14.660;2023-02-20T09:15:26;98146.81;;;12.72;52.84
71915;BME280;60387;49.994;14.660;2023-02-20T09:18:00;98134.94;;;12.81;52.40
71915;BME280;60387;49.994;14.660;2023-02-20T09:20:33;98145.53;;;12.96;53.46
71915;BME280;60387;49.994;14.660;2023-02-20T09:23:07;98142.25;;;13.07;52.29
71915;BME280;60387;49.994;14.660;2023-02-20T09:25:40;98146.38;;;13.18;51.99
71915;BME280;60387;49.994;14.660;2023-02-20T09:28:16;98135.69;;;13.22;51.78
71915;BME280;60387;49.994;14.660;2023-02-20T09:30:50;98129.78;;;13.28;51.96
71915;BME280;60387;49.994;14.660;2023-02-20T09:33:23;98145.50;;;13.31;50.35
71915;BME280;60387;49.994;14.660;2023-02-20T09:35:56;98141.31;;;13.25;51.39
71915;BME280;60387;49.994;14.660;2023-02-20T09:38:29;98143.09;;;13.30;51.21
71915;BME280;60387;49.994;14.660;2023-02-20T09:41:03;98147.19;;;13.41;52.03
71915;BME280;60387;49.994;14.660;2023-02-20T09:43:49;98151.06;;;13.48;51.66
71915;BME280;60387;49.994;14.660;2023-02-20T09:46:27;98140.25;;;13.57;51.13
71915;BME280;60387;49.994;14.660;2023-02-20T09:49:08;98145.38;;;13.58;50.73
71915;BME280;60387;49.994;14.660;2023-02-20T09:51:49;98150.81;;;13.58;50.45
71915;BME280;60387;49.994;14.660;2023-02-20T09:54:36;98148.63;;;13.60;50.43
71915;BME280;60387;49.994;14.660;2023-02-20T09:57:15;98129.75;;;13.64;50.46
71915;BME280;60387;49.994;14.660;2023-02-20T09:59:57;98119.34;;;13.66;50.13
71915;BME280;60387;49.994;14.660;2023-02-20T10:02:41;98125.63;;;13.75;50.49
71915;BME280;60387;49.994;14.660;2023-02-20T10:05:26;98128.47;;;13.92;50.08
71915;BME280;60387;49.994;14.660;2023-02-20T10:08:00;98115.88;;;14.04;48.85
71915;BME280;60387;49.994;14.660;2023-02-20T10:10:33;98108.44;;;14.27;50.43
71915;BME280;60387;49.994;14.660;2023-02-20T10:13:35;98117.50;;;14.53;50.06
71915;BME280;60387;49.994;14.660;2023-02-20T10:19:27;98103.94;;;14.87;48.09
71915;BME280;60387;49.994;14.660;2023-02-20T10:30:44;98081.84;;;15.39;46.16
71915;BME280;60387;49.994;14.660;2023-02-20T10:36:20;98056.94;;;15.41;46.11
71915;BME280;60387;49.994;14.660;2023-02-20T10:38:54;98069.59;;;15.45;46.06
71915;BME280;60387;49.994;14.660;2023-02-20T10:41:53;98058.69;;;15.45;45.63
71915;BME280;60387;49.994;14.660;2023-02-20T10:44:46;98057.25;;;15.48;45.57
71915;BME280;60387;49.994;14.660;2023-02-20T10:47:27;98073.13;;;15.54;44.90
71915;BME280;60387;49.994;14.660;2023-02-20T10:50:16;98044.72;;;15.47;45.26
71915;BME280;60387;49.994;14.660;2023-02-20T10:52:55;98042.97;;;15.42;44.58
71915;BME280;60387;49.994;14.660;2023-02-20T10:58:39;98058.69;;;15.28;45.06
71915;BME280;60387;49.994;14.660;2023-02-20T11:01:20;98058.56;;;15.33;46.62
71915;BME280;60387;49.994;14.660;2023-02-20T11:04:08;98043.31;;;15.32;45.51
71915;BME280;60387;49.994;14.660;2023-02-20T11:06:51;98042.50;;;15.40;45.65
71915;BME280;60387;49.994;14.660;2023-02-20T11:09:26;98030.59;;;15.36;43.98
71915;BME280;60387;49.994;14.660;2023-02-20T11:12:00;98026.59;;;15.42;44.25
71915;BME280;60387;49.994;14.660;2023-02-20T11:14:44;98033.94;;;15.50;44.75
71915;BME280;60387;49.994;14.660;2023-02-20T11:17:20;98034.56;;;15.56;43.70
71915;BME280;60387;49.994;14.660;2023-02-20T11:19:57;98028.81;;;15.57;43.70
71915;BME280;60387;49.994;14.660;2023-02-20T11:22:45;98026.84;;;15.66;44.42
71915;BME280;60387;49.994;14.660;2023-02-20T11:25:32;98022.97;;;15.67;43.72
71915;BME280;60387;49.994;14.660;2023-02-20T11:28:17;98015.09;;;15.74;43.77
71915;BME280;60387;49.994;14.660;2023-02-20T11:31:05;98011.69;;;15.77;43.09
71915;BME280;60387;49.994;14.660;2023-02-20T11:33:43;98007.19;;;15.81;43.61
71915;BME280;60387;49.994;14.660;2023-02-20T11:36:51;97989.00;;;15.85;42.81
71915;BME280;60387;49.994;14.660;2023-02-20T11:39:26;97978.16;;;15.97;43.68
71915;BME280;60387;49.994;14.660;2023-02-20T11:42:17;97966.88;;;16.07;42.33
71915;BME280;60387;49.994;14.660;2023-02-20T11:45:27;97974.25;;;16.15;43.03
71915;BME280;60387;49.994;14.660;2023-02-20T11:48:12;97956.75;;;16.08;42.01
71915;BME280;60387;49.994;14.660;2023-02-20T11:50:48;97951.94;;;16.05;42.31
71915;BME280;60387;49.994;14.660;2023-02-20T11:53:25;97949.38;;;16.00;42.14
71915;BME280;60387;49.994;14.660;2023-02-20T11:56:11;97950.84;;;15.97;42.94
71915;BME280;60387;49.994;14.660;2023-02-20T11:58:45;97951.50;;;15.94;42.08
71915;BME280;60387;49.994;14.660;2023-02-20T12:01:34;97953.25;;;15.99;43.20
71915;BME280;60387;49.994;14.660;2023-02-20T12:04:19;97943.00;;;15.96;42.67
71915;BME280;60387;49.994;14.660;2023-02-20T12:06:53;97933.53;;;15.93;42.15
71915;BME280;60387;49.994;14.660;2023-02-20T12:09:27;97934.97;;;15.91;44.66
71915;BME280;60387;49.994;14.660;2023-02-20T12:12:01;97928.06;;;15.93;42.95
71915;BME280;60387;49.994;14.660;2023-02-20T12:14:35;97934.00;;;15.95;42.95
71915;BME280;60387;49.994;14.660;2023-02-20T12:17:33;97937.38;;;15.92;41.88
71915;BME280;60387;49.994;14.660;2023-02-20T12:20:22;97935.44;;;15.93;41.76
71915;BME280;60387;49.994;14.660;2023-02-20T12:26:02;97938.69;;;15.86;41.65
71915;BME280;60387;49.994;14.660;2023-02-20T12:28:48;97929.06;;;15.89;42.47
71915;BME280;60387;49.994;14.660;2023-02-20T12:46:09;97888.75;;;15.86;41.10
71915;BME280;60387;49.994;14.660;2023-02-20T12:51:37;97874.41;;;15.89;42.05
71915;BME280;60387;49.994;14.660;2023-02-20T12:59:37;97861.56;;;15.89;40.97
71915;BME280;60387;49.994;14.660;2023-02-20T13:05:13;97850.34;;;15.82;41.38
71915;BME280;60387;49.994;14.660;2023-02-20T13:07:55;97859.19;;;15.79;41.45
71915;BME280;60387;49.994;14.660;2023-02-20T13:10:32;97860.34;;;15.78;41.31
71915;BME280;60387;49.994;14.660;2023-02-20T13:13:09;97864.19;;;15.77;41.50
71915;BME280;60387;49.994;14.660;2023-02-20T13:16:00;97865.25;;;15.85;41.36
71915;BME280;60387;49.994;14.660;2023-02-20T13:18:47;97854.69;;;15.83;41.21
71915;BME280;60387;49.994;14.660;2023-02-20T13:21:27;97854.88;;;15.78;41.94
71915;BME280;60387;49.994;14.660;2023-02-20T13:26:56;97865.53;;;15.92;41.46
71915;BME280;60387;49.994;14.660;2023-02-20T13:29:30;97862.22;;;15.86;40.92
71915;BME280;60387;49.994;14.660;2023-02-20T13:34:49;97853.72;;;15.79;41.69
71915;BME280;60387;49.994;14.660;2023-02-20T13:48:48;97842.06;;;15.70;41.03
71915;BME280;60387;49.994;14.660;2023-02-20T13:51:28;97852.34;;;15.73;41.12
71915;BME280;60387;49.994;14.660;2023-02-20T13:54:13;97853.47;;;15.72;41.52
71915;BME280;60387;49.994;14.660;2023-02-20T13:56:53;97850.25;;;15.70;41.62
71915;BME280;60387;49.994;14.660;2023-02-20T13:59:27;97838.88;;;15.68;41.53
71915;BME280;60387;49.994;14.660;2023-02-20T14:02:13;97850.47;;;15.65;40.77
71915;BME280;60387;49.994;14.660;2023-02-20T14:04:53;97852.38;;;15.65;41.98
71915;BME280;60387;49.994;14.660;2023-02-20T14:07:36;97853.91;;;15.54;41.39
71915;BME280;60387;49.994;14.660;2023-02-20T14:10:15;97844.56;;;15.55;41.17
71915;BME280;60387;49.994;14.660;2023-02-20T14:15:32;97842.69;;;15.47;41.53
71915;BME280;60387;49.994;14.660;2023-02-20T14:18:14;97834.34;;;15.43;41.55
71915;BME280;60387;49.994;14.660;2023-02-20T14:20:48;97837.75;;;15.40;42.06
71915;BME280;60387;49.994;14.660;2023-02-20T14:23:29;97813.03;;;15.37;42.38
71915;BME280;60387;49.994;14.660;2023-02-20T14:26:04;97826.84;;;15.40;42.44
71915;BME280;60387;49.994;14.660;2023-02-20T14:28:43;97828.91;;;15.43;42.67
71915;BME280;60387;49.994;14.660;2023-02-20T14:31:38;97814.78;;;15.41;42.62
71915;BME280;60387;49.994;14.660;2023-02-20T14:34:21;97792.81;;;15.29;42.57
71915;BME280;60387;49.994;14.660;2023-02-20T14:42:19;97783.88;;;15.20;43.02
71915;BME280;60387;49.994;14.660;2023-02-20T14:45:05;97774.06;;;15.19;43.38
71915;BME280;60387;49.994;14.660;2023-02-20T14:47:55;97771.56;;;15.14;42.86
71915;BME280;60387;49.994;14.660;2023-02-20T14:50:31;97780.72;;;15.10;42.82
71915;BME280;60387;49.994;14.660;2023-02-20T14:53:13;97769.31;;;15.08;43.22
71915;BME280;60387;49.994;14.660;2023-02-20T14:55:49;97758.59;;;15.03;43.34
71915;BME280;60387;49.994;14.660;2023-02-20T14:58:22;97745.50;;;14.96;43.73
71915;BME280;60387;49.994;14.660;2023-02-20T15:00:56;97750.13;;;14.96;43.59
71915;BME280;60387;49.994;14.660;2023-02-20T15:03:29;97759.75;;;15.02;43.83
71915;BME280;60387;49.994;14.660;2023-02-20T15:06:04;97742.25;;;15.03;43.82
71915;BME280;60387;49.994;14.660;2023-02-20T15:08:39;97755.56;;;15.04;43.88
71915;BME280;60387;49.994;14.660;2023-02-20T15:11:13;97754.91;;;15.07;43.74
71915;BME280;60387;49.994;14.660;2023-02-20T15:13:47;97739.31;;;15.08;43.84
71915;BME280;60387;49.994;14.660;2023-02-20T15:16:24;97757.31;;;15.09;43.97
71915;BME280;60387;49.994;14.660;2023-02-20T15:18:57;97748.31;;;15.08;43.95
71915;BME280;60387;49.994;14.660;2023-02-20T15:21:39;97749.22;;;15.12;43.69
71915;BME280;60387;49.994;14.660;2023-02-20T15:24:37;97748.59;;;15.15;43.90
71915;BME280;60387;49.994;14.660;2023-02-20T15:27:12;97747.47;;;15.16;43.74
71915;BME280;60387;49.994;14.660;2023-02-20T15:29:46;97730.63;;;15.14;43.44